Terminal Aerodrome Forecast
Issued by NWS Blacksburg, VA

Home | Current Version | Previous Version | Text Only | Print | Product List | Glossary On
Versions: 1 2 3 4 5 6 7 8 9 10 11 12 13 14 15 16 17 18 19 20 21 22 23 24 25 26 27
000
FTUS41 KRNK 232041 AAA
TAFLYH
TAF AMD
KLYH 232041Z 2321/2418 05007KT P6SM -RA SCT025 OVC090
      TEMPO 2322/2324 5SM SHRA OVC025
     FM240000 06008KT 3SM RA OVC011
     FM241000 04010KT 1SM RA OVC007
     FM241200 04012KT 3SM SHRA OVC008
     FM241600 02013G26KT 5SM -SHRA OVC010=

USA.gov is the U.S. government's official web portal to all federal, state and local government web resources and services.